• Join FlightAware (Why Join?)
  • Login
  • US Flag 
12:38AM EDT


 

Airport Tracker/Info


-or-


 

Live Flight TrackerFlight Track Log ✈ UPS1111 ✈ 22-Oct-2013 ✈ KJFK - KSDF

Flight Track Log - Related Links

Times and Time Zones

All times are in EDT time to prevent confusion due to time zone crossing. See the UPS1111 flight status page for this flight to view local times or setup timezone preferences in your user account.

Time Position Orientation Groundspeed Altitude Reporting Facility
EDT Latitude Longitude Course Direction KTS MPH feet Rate Location/Type
11:06PM 40.6230 -73.7850 143° Southeast  Level FlightAware
11:08PM 40.6310 -73.7790 232° Southwest 130 150 480 Level FlightAware
11:09PM 40.4650 -74.0360 232° Southwest  Level FlightAware Approximate
11:09PM 40.6510 -73.7630 31° Northeast 159 183 1,500  Level FlightAware
11:09PM 40.6642 -73.7498 37° Northeast 189 217 2,200 2,160 Climbing FlightAware ADS-B
11:10PM 40.6570 -73.6830 98° East 253 291 4,200 2,400 Climbing FlightAware
11:10PM 40.6330 -73.6680 155° Southeast 260 299 5,300 3,060 Climbing FlightAware
11:11PM 40.5900 -73.6480 161° South 276 318 7,200 2,760 Climbing FlightAware
11:11PM 40.5760 -73.6450 171° South 268 308 8,000 3,360 Climbing FlightAware
11:12PM 40.5340 -73.6700 204° Southwest 260 299 10,200 3,120 Climbing FlightAware
11:12PM 40.5200 -73.7030 241° Southwest 261 300 10,900 1,500 Climbing FlightAware
11:13PM 40.4860 -73.7930 244° Southwest 308 354 12,400 2,700 Climbing FlightAware
11:14PM 40.4520 -73.8780 242° Southwest 308 354 15,900 2,760 Climbing FlightAware
11:15PM 40.4180 -73.9600 241° Southwest 332 382 17,000 720 Climbing FlightAware
11:16PM 40.3810 -74.0530 242° Southwest 329 379 17,200 1,680 Climbing FlightAware
11:16PM 40.3620 -74.1000 242° Southwest 314 361 19,200 3,600 Climbing FlightAware
11:17PM 40.3230 -74.1970 242° Southwest 323 372 22,200 3,600 Climbing FlightAware
11:18PM 40.2998 -74.2552 242° Southwest 310 357 24,600 4,020 Climbing FlightAware ADS-B
11:18PM 40.2925 -74.2816 250° West 329 379 25,300 2,760 Climbing FlightAware ADS-B
11:19PM 40.2957 -74.3480 274° West 330 380 26,800 2,940 Climbing FlightAware ADS-B
11:19PM 40.2950 -74.3852 269° West 336 387 28,300 2,400 Climbing FlightAware ADS-B
11:20PM 40.2912 -74.4616 266° West 337 388 29,200 1,680 Climbing FlightAware ADS-B
11:20PM 40.2885 -74.5128 266° West 346 398 30,200 2,880 Climbing FlightAware ADS-B
11:21PM 40.2899 -74.6379 271° West 317 365 33,300 2,760 Climbing FlightAware ADS-B
11:21PM 40.2905 -74.6859 271° West 322 371 34,000 1,380 Climbing FlightAware ADS-B
11:22PM 40.2916 -74.7673 271° West 330 380 34,800 1,260 Climbing FlightAware ADS-B
11:23PM 40.2926 -74.8300 271° West 335 386 35,500 1,200 Climbing FlightAware ADS-B
11:23PM 40.2940 -74.9191 271° West 341 392 36,300 1,080 Climbing FlightAware ADS-B
11:24PM 40.2952 -75.0032 271° West 348 400 37,000 540 Climbing FlightAware ADS-B
11:24PM 40.2961 -75.0672 271° West 348 400 37,000  Level FlightAware ADS-B
11:25PM 40.2972 -75.1502 271° West 347 399 37,000  Level FlightAware ADS-B
11:26PM 40.2979 -75.2075 271° West 347 399 37,000  Level FlightAware ADS-B
11:26PM 40.2987 -75.2769 271° West 349 402 37,000  Level FlightAware ADS-B
11:27PM 40.2994 -75.3406 271° West 350 403 37,000  Level FlightAware ADS-B
11:27PM 40.3001 -75.4095 271° West 350 403 37,000  Level FlightAware ADS-B
11:28PM 40.3009 -75.4888 271° West 351 404 37,000  Level FlightAware ADS-B
11:28PM 40.3017 -75.5731 271° West 351 404 37,000  Level FlightAware ADS-B
11:29PM 40.3022 -75.6349 271° West 352 405 37,000  Level FlightAware ADS-B
11:30PM 40.3029 -75.7197 271° West 353 406 37,000  Level FlightAware ADS-B
11:30PM 40.3033 -75.7745 271° West 353 406 37,000  Level FlightAware ADS-B
11:31PM 40.3039 -75.8588 271° West 352 405 37,000  Level FlightAware ADS-B (KWWD)
11:31PM 40.3044 -75.9361 270° West 351 404 37,000  Level FlightAware ADS-B
11:32PM 40.3046 -76.0002 270° West 351 404 37,000  Level FlightAware ADS-B
11:32PM 40.3050 -76.0772 270° West 351 404 37,000  Level FlightAware ADS-B
11:33PM 40.3053 -76.1418 270° West 351 404 37,000  Level FlightAware ADS-B
11:34PM 40.3057 -76.2282 270° West 351 404 37,000  Level FlightAware ADS-B
11:34PM 40.3059 -76.2920 270° West 352 405 37,000  Level FlightAware ADS-B
11:35PM 40.3060 -76.3603 270° West 350 403 37,000  Level FlightAware ADS-B
11:35PM 40.3061 -76.4290 270° West 351 404 37,000  Level FlightAware ADS-B (KWWD)
11:36PM 40.3062 -76.5056 270° West 351 404 37,000  Level FlightAware ADS-B
11:36PM 40.3062 -76.5754 270° West 350 403 37,000  Level FlightAware ADS-B (KWWD)
11:37PM 40.3062 -76.6454 270° West 349 402 37,000 180 Level FlightAware ADS-B (KWWD)
11:37PM 40.3062 -76.7095 270° West 350 403 37,200 780 Climbing FlightAware ADS-B (KWWD)
11:38PM 40.3061 -76.7739 270° West 352 405 37,800 660 Climbing FlightAware ADS-B (KWWD)
11:39PM 40.3060 -76.8585 270° West 356 410 38,000 120 Climbing FlightAware ADS-B (KWWD)
11:40PM 40.3060 -76.9790 270° West 355 409 38,000  Level FlightAware
11:40PM 40.3050 -77.0440 269° West 355 409 38,000  Level FlightAware
11:41PM 40.3048 -77.1774 270° West 356 410 38,000  Level FlightAware ADS-B (KWWD)
11:42PM 40.3040 -77.2460 269° West 357 411 38,000  Level FlightAware
11:42PM 40.3041 -77.3058 270° West 358 412 38,000  Level FlightAware ADS-B (KWWD)
11:43PM 40.3040 -77.3870 270° West 354 407 38,000  Level FlightAware
11:43PM 40.3030 -77.4630 269° West 354 407 38,000  Level FlightAware
11:44PM 40.3020 -77.5590 269° West 353 406 38,000  Level FlightAware
11:45PM 40.3009 -77.7155 270° West 354 407 38,000  Level FlightAware ADS-B (KWWD)
11:46PM 40.3000 -77.8000 269° West 354 407 38,000  Level FlightAware
11:46PM 40.2990 -77.8720 269° West 355 409 38,000  Level FlightAware
11:47PM 40.2980 -77.9960 269° West 355 409 38,000  Level FlightAware
11:48PM 40.2970 -78.0840 269° West 355 409 38,000  Level FlightAware
11:49PM 40.2950 -78.1920 269° West 356 410 38,000  Level FlightAware
11:50PM 40.2940 -78.2720 269° West 357 411 38,000  Level FlightAware
11:50PM 40.2937 -78.3114 269° West 354 407 38,000  Level FlightAware ADS-B (KWWD)
11:50PM 40.2925 -78.3822 269° West 359 413 38,000  Level FlightAware ADS-B (KWWD)
11:51PM 40.2911 -78.4685 269° West 359 413 38,000  Level FlightAware ADS-B (KWWD)
11:52PM 40.2895 -78.5664 269° West 359 413 38,000  Level FlightAware ADS-B (KWWD)
11:52PM 40.2883 -78.6346 269° West 364 419 38,000  Level FlightAware ADS-B (KWWD)
11:53PM 40.2860 -78.7460 268° West 365 420 38,000  Level FlightAware
11:54PM 40.2840 -78.8770 269° West 366 421 38,000  Level FlightAware
11:55PM 40.2820 -78.9850 269° West 367 422 38,000  Level FlightAware
11:56PM 40.2800 -79.0720 268° West 367 422 38,000  Level FlightAware
11:56PM 40.2790 -79.1320 269° West 367 422 38,000  Level FlightAware
11:57PM 40.2770 -79.1990 268° West 367 422 38,000  Level FlightAware
11:58PM 40.2740 -79.3390 268° West 367 422 38,000  Level FlightAware
11:58PM 40.2696 -79.3925 264° West 365 420 38,000  Level FlightAware ADS-B (KWWD)
11:59PM 40.2440 -79.5350 257° West 364 419 38,000  Level FlightAware
12:00AM 40.2250 -79.6290 255° West 366 421 38,000  Level FlightAware
12:00AM 40.2130 -79.6860 255° West 367 422 38,000  Level FlightAware
12:01AM 40.1970 -79.7620 255° West 366 421 38,000  Level FlightAware
12:01AM 40.1673 -79.8981 254° West 369 425 38,000  Level FlightAware ADS-B (WMSA / SZB)
12:02AM 40.1710 -79.8800 75° East 368 423 38,000  Level FlightAware
12:02AM 40.1550 -79.9530 254° West 369 425 38,000  Level FlightAware
12:03AM 40.1420 -80.0170 255° West 369 425 38,000  Level FlightAware
12:03AM 40.1101 -80.1626 254° West 371 427 38,000  Level FlightAware ADS-B (WMSA / SZB)
12:04AM 40.1160 -80.1370 73° East 371 427 38,000  Level FlightAware
12:05AM 40.0930 -80.2400 254° West 371 427 38,000  Level FlightAware
12:05AM 40.0780 -80.3110 255° West 372 428 38,000  Level FlightAware
12:06AM 40.0510 -80.4320 254° West 372 428 38,000  Level FlightAware
12:07AM 40.0200 -80.5730 254° West 373 429 38,000  Level FlightAware
12:08AM 39.9900 -80.7040 253° West 375 432 38,000  Level FlightAware
12:09AM 39.9680 -80.8070 254° West 375 432 38,000  Level FlightAware
12:10AM 39.9520 -80.8770 253° West 375 432 38,000  Level FlightAware
12:10AM 39.9250 -80.9940 253° West 374 430 38,000  Level FlightAware
12:11AM 39.9000 -81.1050 254° West 374 430 38,000  Level FlightAware
12:12AM 39.8750 -81.2180 254° West 373 429 38,000  Level FlightAware
12:13AM 39.8520 -81.3170 253° West 373 429 38,000  Level FlightAware
12:13AM 39.8400 -81.3690 253° West 373 429 38,000  Level FlightAware
12:15AM 39.8060 -81.5150 253° West 372 428 38,000  Level FlightAware
12:15AM 39.7910 -81.5830 254° West 372 428 38,000  Level FlightAware
12:16AM 39.7650 -81.6910 253° West 373 429 38,000  Level FlightAware
12:17AM 39.7390 -81.8020 253° West 373 429 38,000  Level FlightAware
12:17AM 39.7220 -81.8780 254° West 373 429 38,000  Level FlightAware
12:18AM 39.7080 -81.9380 253° West 374 430 38,000  Level FlightAware
12:18AM 39.6910 -82.0070 252° West 373 429 38,000  Level FlightAware
12:19AM 39.6770 -82.0660 253° West 374 430 38,000  Level FlightAware
12:19AM 39.6570 -82.1510 253° West 375 432 38,000  Level FlightAware
12:20AM 39.6390 -82.2250 252° West 374 430 38,000  Level FlightAware
12:21AM 39.6030 -82.3750 253° West 377 434 38,000  Level FlightAware
12:22AM 39.5750 -82.4930 253° West 378 435 38,000  Level FlightAware
12:23AM 39.5450 -82.6180 253° West 380 437 38,000  Level FlightAware
12:24AM 39.5300 -82.6780 252° West 381 438 38,000  Level FlightAware
12:24AM 39.5020 -82.7930 253° West 382 440 38,000  Level FlightAware
12:25AM 39.4790 -82.8880 253° West 382 440 38,000 -960 Level FlightAware
12:26AM 39.4450 -83.0230 252° West 374 430 36,300 -1,500 Descending FlightAware
12:27AM 39.4280 -83.0830 250° West 362 417 35,700 -1,320 Descending FlightAware
12:27AM 39.4120 -83.1320 247° West 354 407 35,100 -1,680 Descending FlightAware
12:28AM 39.3870 -83.2030 246° West 346 398 34,000 -1,800 Descending FlightAware
12:28AM 39.3640 -83.2670 245° Southwest 338 389 33,000 -1,920 Descending FlightAware
12:29AM 39.3260 -83.3760 246° West 333 383 31,000 -1,860 Descending FlightAware
12:30AM 39.3040 -83.4400 246° West 323 372 30,100 -840 Descending FlightAware
12:31AM 39.2810 -83.5050 245° Southwest 320 368 30,000 -120 Descending FlightAware
12:31AM 39.2480 -83.6000 246° West 347 399 30,000  Level FlightAware
12:32AM 39.2080 -83.7140 246° West 352 405 30,000  Level FlightAware
12:33AM 39.1720 -83.8160 246° West 350 403 30,000 -300 Level FlightAware
12:34AM 39.1330 -83.9240 245° Southwest 331 381 29,500 -720 Descending FlightAware
12:35AM 39.1040 -84.0070 246° West 313 360 28,800 -600 Descending FlightAware
12:36AM 39.0840 -84.0620 245° Southwest 312 359 28,700 -120 Descending FlightAware
12:36AM 39.0720 -84.0960 246° West 312 359 28,700  Level FlightAware
12:37AM 39.0530 -84.1490 245° Southwest 312 359 28,700  Level FlightAware
12:37AM 39.0330 -84.2020 244° Southwest 312 359 28,700  Level FlightAware
12:38AM 39.0090 -84.2680 245° Southwest 312 359 28,700  Level FlightAware
12:39AM 38.9910 -84.3190 246° West 312 359 28,700 -4,680 Level FlightAware
12:39AM 38.9540 -84.4240 246° West 292 336 22,800 -3,900 Descending FlightAware
12:40AM 38.9290 -84.4940 245° Southwest 292 336 22,800  Level FlightAware
12:41AM 38.9170 -84.5260 244° Southwest 292 336 22,800  Level FlightAware
12:42AM 38.8880 -84.6070 245° Southwest 292 336 22,800  Level FlightAware
12:42AM 38.8650 -84.6710 245° Southwest 292 336 22,800  Level FlightAware
12:43AM 38.8410 -84.7360 245° Southwest 292 336 22,800 -5,100 Level FlightAware
12:44AM 38.8083 -84.8256 245° Southwest 272 313 15,900 -5,340 Descending Indianapolis Center
12:45AM 38.7747 -84.9147 244° Southwest 277 319 14,500 -1,200 Descending Indianapolis Center
12:46AM 38.7247 -84.9842 227° Southwest 272 313 13,500 -840 Descending Indianapolis Center
12:51AM 38.4390 -85.2590 227° Southwest 255 293 9,800 -720 Descending FlightAware
12:51AM 38.4080 -85.2890 217° Southwest 255 293 9,800 -720 Level FlightAware
12:52AM 38.3750 -85.3200 216° Southwest 255 293 9,000 -1,080 Descending FlightAware
12:52AM 38.3440 -85.3500 217° Southwest 253 291 8,700 -720 Descending FlightAware
12:53AM 38.3180 -85.3740 216° Southwest 253 291 8,300 -780 Descending FlightAware
12:53AM 38.2910 -85.4000 217° Southwest 255 293 8,000 -720 Descending FlightAware
12:54AM 38.2760 -85.4140 216° Southwest 254 292 7,800 -720 Descending FlightAware
12:54AM 38.2690 -85.4210 218° Southwest 254 292 7,700 -840 Descending FlightAware
12:54AM 38.2330 -85.4570 218° Southwest 249 287 7,200 -720 Descending FlightAware
12:55AM 38.2000 -85.4770 205° Southwest 251 289 6,800 -780 Descending FlightAware
12:55AM 38.1610 -85.4860 190° South 250 288 6,400 -660 Descending FlightAware
12:56AM 38.1210 -85.4950 190° South 237 273 6,100 -600 Descending FlightAware
12:56AM 38.1000 -85.5000 191° South 231 266 5,900 -600 Descending FlightAware
12:57AM 38.0670 -85.5070 189° South 220 253 5,600 -600 Descending FlightAware
12:58AM 38.0300 -85.5150 190° South 212 244 5,200 -780 Descending FlightAware
12:58AM 38.0090 -85.5330 214° Southwest 198 228 4,800 -840 Descending FlightAware
12:59AM 37.9990 -85.5640 248° West 199 229 4,400 -780 Descending FlightAware
12:59AM 37.9890 -85.5900 244° Southwest 196 226 4,100 -300 Descending FlightAware
01:00AM 37.9750 -85.6300 246° West 161 185 4,100 -180 Level FlightAware
01:00AM 37.9830 -85.6650 286° West 182 209 3,900 -360 Descending FlightAware
01:01AM 38.0030 -85.6830 325° Northwest 180 207 3,700 -480 Descending FlightAware
01:01AM 38.0200 -85.6940 333° Northwest 183 211 3,500 -900 Descending FlightAware
01:02AM 38.0490 -85.7030 346° North 186 214 2,800 -1,140 Descending FlightAware
01:02AM 38.0700 -85.7100 345° North 188 216 2,400 -1,080 Descending FlightAware
01:02AM 38.0840 -85.7150 344° North 182 209 2,100 -480 Descending FlightAware
01:03AM 38.1010 -85.7200 347° North 182 209 2,100 -960 Level FlightAware
01:03AM 38.1333 -85.7333 347° North 153 176 1,200 -1,740 Descending Louisville TRACON